Time;durP1;ratioP1;P1;durP2;ratioP2;P2;SDS_P1;SDS_P2;PMS_P1;PMS_P2;Temp;Humidity;BMP_temperature;BMP_pressure;BME280_temperature;BME280_humidity;BME280_pressure;Samples;Min_cycle;Max_cycle;Signal;HPM_P1;HPM_P2
2020/12/26 00:00:05;;;;;;;25.03;11.57;;;;;;;2.83;82.87;101209.38;8364220;34;20436;-69
2020/12/26 00:05:14;;;;;;;23.53;11.77;;;;;;;2.85;82.72;101218.13;8363777;34;21115;-69
2020/12/26 00:10:17;;;;;;;27.57;13.10;;;;;;;2.96;82.49;101215.22;8363958;34;20888;-69
2020/12/26 00:15:19;;;;;;;23.37;11.37;;;;;;;2.92;82.42;101220.63;8362853;34;20147;-69
2020/12/26 00:20:22;;;;;;;21.10;10.50;;;;;;;2.96;82.38;101233.72;8362257;34;21129;-69
2020/12/26 00:25:25;;;;;;;25.77;12.40;;;;;;;2.90;82.63;101220.66;8362480;34;20178;-69
2020/12/26 00:30:28;;;;;;;21.23;11.13;;;;;;;2.96;82.53;101231.06;8362334;34;21995;-70
2020/12/26 00:35:30;;;;;;;22.93;11.57;;;;;;;2.88;82.92;101217.19;8364321;34;20466;-69
2020/12/26 00:40:33;;;;;;;18.73;10.53;;;;;;;2.94;82.60;101211.78;8362740;34;20143;-69
2020/12/26 00:45:36;;;;;;;24.23;11.70;;;;;;;3.01;82.81;101207.22;8362653;34;21058;-69
2020/12/26 00:50:38;;;;;;;22.90;10.73;;;;;;;2.92;82.50;101210.06;8360353;34;20333;-69
2020/12/26 00:55:42;;;;;;;18.93;11.50;;;;;;;2.97;82.85;101192.38;8335185;34;20135;-69
2020/12/26 01:00:46;;;;;;;20.20;11.23;;;;;;;2.88;83.13;101189.03;8336782;34;20560;-69
2020/12/26 01:06:17;;;;;;;20.07;10.63;;;;;;;2.96;83.33;101183.56;8361241;34;20130;-69
2020/12/26 01:11:21;;;;;;;16.13;9.30;;;;;;;3.00;83.19;101192.28;8345902;34;20441;-69
2020/12/26 01:16:23;;;;;;;19.13;10.43;;;;;;;2.93;83.46;101195.97;8357623;34;20454;-69
2020/12/26 01:21:25;;;;;;;15.30;9.57;;;;;;;2.91;83.68;101185.47;8355390;34;20246;-69
2020/12/26 01:26:29;;;;;;;13.43;8.07;;;;;;;2.79;84.46;101189.22;8341909;34;20502;-69
2020/12/26 01:31:31;;;;;;;19.73;9.40;;;;;;;3.08;84.00;101188.56;8342901;34;20244;-70
2020/12/26 01:36:34;;;;;;;14.23;10.10;;;;;;;3.21;83.49;101212.03;8348283;34;20435;-70
2020/12/26 01:41:37;;;;;;;19.17;8.87;;;;;;;3.29;83.13;101202.16;8359050;34;20746;-70
2020/12/26 01:46:39;;;;;;;13.57;8.60;;;;;;;3.42;82.97;101214.19;8360173;34;20413;-70
2020/12/26 01:51:42;;;;;;;15.57;9.27;;;;;;;3.44;83.05;101228.22;8360314;34;20414;-70
2020/12/26 01:56:48;;;;;;;19.00;10.13;;;;;;;3.49;82.51;101215.78;8363565;34;20579;-70
2020/12/26 02:01:51;;;;;;;14.87;10.10;;;;;;;3.47;82.45;101214.94;8361074;34;21832;-70
2020/12/26 02:06:58;;;;;;;16.27;9.90;;;;;;;3.35;82.85;101212.59;8370288;34;20442;-70
2020/12/26 02:12:01;;;;;;;22.90;8.73;;;;;;;3.31;83.19;101206.50;8374016;34;20457;-71
2020/12/26 02:17:03;;;;;;;14.55;7.22;;;;;;;3.19;83.00;101220.00;8427009;33;20193;-70
2020/12/26 02:22:06;;;;;;;15.27;8.57;;;;;;;3.19;83.34;101220.00;8423263;34;20189;-70
2020/12/26 02:27:10;;;;;;;12.23;7.43;;;;;;;3.05;83.91;101225.59;8422889;33;20435;-70
2020/12/26 02:32:12;;;;;;;12.80;6.55;;;;;;;3.11;83.87;101220.19;8423611;34;20454;-70
2020/12/26 02:37:15;;;;;;;15.45;8.52;;;;;;;3.11;84.35;101227.25;8423152;33;21226;-70
2020/12/26 02:42:18;;;;;;;12.57;7.27;;;;;;;3.27;83.48;101212.78;8423337;34;20429;-70
2020/12/26 02:47:20;;;;;;;13.27;7.87;;;;;;;3.20;83.57;101216.44;8425617;33;20740;-70
2020/12/26 02:52:22;;;;;;;12.33;8.10;;;;;;;3.16;84.15;101214.81;8429548;34;20671;-70
2020/12/26 02:57:26;;;;;;;13.27;7.07;;;;;;;3.18;84.50;101213.00;8434992;33;20423;-70
2020/12/26 03:02:28;;;;;;;11.07;7.20;;;;;;;3.24;83.83;101202.28;8433262;33;20411;-70
2020/12/26 03:07:30;;;;;;;16.63;7.57;;;;;;;3.21;84.32;101196.19;8428988;33;20126;-70
2020/12/26 03:12:33;;;;;;;12.40;7.63;;;;;;;3.19;84.64;101198.88;8429519;34;20154;-70
2020/12/26 03:17:36;;;;;;;13.80;7.70;;;;;;;3.22;84.87;101197.94;8428588;33;20420;-70
2020/12/26 03:22:38;;;;;;;13.27;6.80;;;;;;;3.23;84.74;101194.38;8427608;34;20467;-71
2020/12/26 03:27:41;;;;;;;11.07;6.77;;;;;;;3.30;84.35;101191.56;8427989;33;20683;-71
2020/12/26 03:32:44;;;;;;;11.40;6.63;;;;;;;3.23;85.07;101191.75;8426856;33;20476;-70
2020/12/26 03:37:46;;;;;;;14.60;7.87;;;;;;;3.33;84.55;101188.84;8426690;33;20207;-70
2020/12/26 03:42:49;;;;;;;9.53;6.33;;;;;;;3.36;84.50;101181.78;8427035;34;20381;-70
2020/12/26 03:47:52;;;;;;;12.80;6.70;;;;;;;3.41;83.97;101185.16;8427425;34;20966;-70
2020/12/26 03:52:54;;;;;;;13.77;7.33;;;;;;;3.41;84.42;101180.75;8432325;34;20420;-70
2020/12/26 03:57:58;;;;;;;9.97;6.57;;;;;;;3.52;83.77;101173.41;8425212;33;20418;-69
2020/12/26 04:03:00;;;;;;;12.47;7.13;;;;;;;3.37;84.11;101168.50;8424436;34;20158;-69
2020/12/26 04:08:03;;;;;;;11.43;5.43;;;;;;;3.33;84.42;101182.72;8424153;33;22089;-69
2020/12/26 04:13:06;;;;;;;14.43;7.40;;;;;;;3.52;83.45;101176.06;8424427;34;20179;-69
2020/12/26 04:18:09;;;;;;;12.85;7.53;;;;;;;3.54;83.42;101173.41;8425006;33;20180;-70
2020/12/26 04:23:12;;;;;;;11.70;7.37;;;;;;;3.44;83.33;101161.31;8424208;34;21098;-69
2020/12/26 04:28:16;;;;;;;6.47;4.20;;;;;;;3.23;84.03;101155.63;8424409;33;21823;-69
2020/12/26 04:33:18;;;;;;;11.40;6.17;;;;;;;3.45;83.61;101133.97;8425310;34;22050;-70
2020/12/26 04:38:21;;;;;;;12.50;6.47;;;;;;;3.31;83.70;101136.97;8424651;33;21134;-71
2020/12/26 04:43:24;;;;;;;8.83;5.10;;;;;;;3.19;83.93;101137.28;8422958;34;20431;-70
2020/12/26 04:48:28;;;;;;;7.33;6.07;;;;;;;3.32;83.68;101138.72;8423417;33;20649;-70
2020/12/26 04:53:33;;;;;;;12.23;6.57;;;;;;;3.17;84.37;101132.03;8423817;34;20552;-70
2020/12/26 04:58:40;;;;;;;5.93;3.50;;;;;;;3.08;84.37;101125.19;8421394;33;20185;-70
2020/12/26 05:03:44;;;;;;;4.93;3.60;;;;;;;3.00;84.88;101118.38;8416982;34;20418;-70
2020/12/26 05:08:47;;;;;;;6.77;5.13;;;;;;;3.23;84.23;101117.81;8418751;33;20513;-69
2020/12/26 05:13:50;;;;;;;8.37;5.00;;;;;;;3.09;84.43;101119.00;8421737;34;20424;-69
2020/12/26 05:18:52;;;;;;;12.40;6.33;;;;;;;3.15;84.68;101117.97;8420137;33;20406;-70
2020/12/26 05:24:04;;;;;;;5.40;3.83;;;;;;;3.22;84.46;101106.38;8424791;34;20223;-70
2020/12/26 05:29:08;;;;;;;12.20;6.60;;;;;;;3.38;83.63;101098.94;8425513;33;20430;-71
2020/12/26 05:34:11;;;;;;;15.50;5.20;;;;;;;3.34;83.63;101105.19;8424937;34;20653;-69
2020/12/26 05:39:14;;;;;;;12.30;6.73;;;;;;;3.33;83.55;101088.47;8425626;34;20450;-70
2020/12/26 05:44:29;;;;;;;6.70;3.20;;;;;;;3.18;83.48;101088.00;8429047;34;20486;-70
2020/12/26 05:49:34;;;;;;;11.60;6.23;;;;;;;3.34;83.10;101082.28;8433313;33;20561;-70
2020/12/26 05:54:37;;;;;;;9.97;5.47;;;;;;;3.17;83.47;101091.56;8431695;34;20211;-70
2020/12/26 05:59:45;;;;;;;6.10;3.97;;;;;;;3.15;83.34;101104.78;8429663;34;20411;-70
2020/12/26 06:05:00;;;;;;;10.03;6.07;;;;;;;3.19;83.35;101087.97;8430329;34;20403;-70
2020/12/26 06:10:05;;;;;;;14.50;7.30;;;;;;;3.29;83.21;101091.22;8430052;33;20447;-70
2020/12/26 06:15:08;;;;;;;6.33;4.00;;;;;;;3.27;83.07;101090.44;8430429;34;20527;-69
2020/12/26 06:20:11;;;;;;;11.17;6.73;;;;;;;3.19;82.74;101087.09;8430673;33;20604;-69
2020/12/26 06:25:16;;;;;;;16.47;8.43;;;;;;;3.13;83.10;101082.84;8434006;34;20426;-69
2020/12/26 06:30:20;;;;;;;13.70;7.03;;;;;;;3.05;83.36;101080.41;8433190;33;20730;-69
2020/12/26 06:35:23;;;;;;;7.27;4.97;;;;;;;3.06;82.98;101083.91;8431001;34;20948;-69
2020/12/26 06:40:29;;;;;;;8.70;5.03;;;;;;;2.99;83.33;101079.66;8430200;33;21798;-69
2020/12/26 06:45:35;;;;;;;8.80;4.97;;;;;;;2.89;83.78;101079.91;8408019;34;20195;-69
2020/12/26 06:50:37;;;;;;;10.93;7.60;;;;;;;3.08;83.06;101082.94;8431704;33;21199;-69
2020/12/26 06:55:41;;;;;;;16.60;8.23;;;;;;;3.10;83.23;101075.00;8442216;34;20208;-69
2020/12/26 07:00:44;;;;;;;11.80;6.17;;;;;;;2.89;84.18;101087.81;8443699;33;20216;-69
2020/12/26 07:05:48;;;;;;;22.57;10.47;;;;;;;3.00;83.73;101091.97;8431342;34;20413;-69
2020/12/26 07:10:51;;;;;;;16.33;9.00;;;;;;;3.11;83.33;101088.16;8428168;33;21977;-69
2020/12/26 07:15:55;;;;;;;14.90;7.63;;;;;;;3.09;83.31;101089.97;8429104;34;20495;-69
2020/12/26 07:20:57;;;;;;;10.80;7.40;;;;;;;3.09;82.92;101097.03;8427479;33;20520;-69
2020/12/26 07:25:59;;;;;;;14.63;8.33;;;;;;;3.19;83.48;101095.03;8431576;34;20980;-69
2020/12/26 07:36:29;;;;;;;20.70;11.37;;;;;;;3.19;82.66;101103.81;8802108;32;20561;-70
2020/12/26 07:41:31;;;;;;;19.10;11.37;;;;;;;3.39;82.45;101107.72;8740240;33;20281;-70
2020/12/26 07:46:34;;;;;;;23.97;12.17;;;;;;;3.40;82.56;101099.78;8740439;33;20524;-70
2020/12/26 07:51:38;;;;;;;21.00;8.87;;;;;;;3.54;81.50;101110.84;8739941;33;20151;-70
2020/12/26 07:56:43;;;;;;;19.37;11.97;;;;;;;3.63;81.57;101100.94;8739948;33;20435;-70
2020/12/26 08:01:45;;;;;;;23.70;13.30;;;;;;;3.69;81.55;101100.78;8742929;33;20201;-70
2020/12/26 08:06:50;;;;;;;21.13;11.33;;;;;;;3.67;81.30;101097.28;8742009;33;20252;-70
2020/12/26 08:11:53;;;;;;;23.07;13.50;;;;;;;3.57;81.76;101115.19;8739435;33;21454;-70
2020/12/26 08:16:56;;;;;;;27.33;9.43;;;;;;;3.61;82.20;101108.91;8738850;33;20186;-70
2020/12/26 08:21:59;;;;;;;24.57;13.00;;;;;;;3.79;81.60;101110.19;8738524;33;20193;-70
2020/12/26 08:27:06;;;;;;;27.20;14.97;;;;;;;3.94;81.49;101119.47;8739281;33;20218;-70
2020/12/26 08:32:11;;;;;;;22.93;11.97;;;;;;;3.87;81.43;101124.06;8740050;33;21281;-70
2020/12/26 08:37:25;;;;;;;19.83;11.73;;;;;;;3.92;81.41;101119.53;8739958;33;20437;-70
2020/12/26 08:42:29;;;;;;;24.33;12.40;;;;;;;3.97;81.39;101122.88;8739494;33;20577;-70
2020/12/26 08:47:33;;;;;;;25.57;15.77;;;;;;;4.07;81.56;101138.50;8721710;33;20197;-70
2020/12/26 08:52:36;;;;;;;25.70;14.40;;;;;;;4.19;81.44;101141.66;8719539;33;20199;-70
2020/12/26 08:57:38;;;;;;;22.70;12.73;;;;;;;4.01;81.85;101127.19;8719541;33;20598;-70
2020/12/26 09:02:47;;;;;;;20.33;11.43;;;;;;;4.30;80.99;101120.19;8719493;33;20192;-70
2020/12/26 09:08:07;;;;;;;34.57;18.00;;;;;;;4.44;80.80;101125.06;8719464;33;20255;-70
2020/12/26 09:13:12;;;;;;;26.97;12.97;;;;;;;4.30;81.53;101129.91;8822185;32;20178;-70
2020/12/26 09:18:19;;;;;;;20.50;12.07;;;;;;;4.34;81.45;101126.28;8837409;32;20211;-69
2020/12/26 09:23:23;;;;;;;31.73;16.37;;;;;;;4.26;81.41;101115.06;8837702;32;20224;-69
2020/12/26 09:28:26;;;;;;;30.83;13.17;;;;;;;4.13;81.12;101133.03;8837463;32;20182;-70
2020/12/26 09:33:29;;;;;;;27.03;14.60;;;;;;;4.42;80.55;101122.50;8812032;32;20142;-77
2020/12/26 09:38:33;;;;;;;22.37;12.87;;;;;;;4.52;79.85;101124.84;8836893;32;20636;-71
2020/12/26 09:43:35;;;;;;;30.83;13.67;;;;;;;4.54;79.86;101120.38;8837083;32;20697;-70
2020/12/26 09:48:38;;;;;;;29.80;11.70;;;;;;;4.60;79.35;101107.81;8835971;32;20192;-70
2020/12/26 09:53:42;;;;;;;25.57;13.47;;;;;;;4.55;79.53;101098.28;8833017;32;20266;-70
2020/12/26 09:58:46;;;;;;;22.80;10.77;;;;;;;4.36;79.61;101100.63;8834565;32;20204;-70
2020/12/26 10:03:50;;;;;;;25.48;11.88;;;;;;;4.70;79.20;101092.53;8835345;32;20217;-70
2020/12/26 10:08:54;;;;;;;32.37;14.93;;;;;;;4.85;78.72;101086.78;8835771;32;20416;-70
2020/12/26 10:13:56;;;;;;;18.38;10.18;;;;;;;4.84;78.55;101070.91;8834991;32;20657;-70
2020/12/26 10:19:00;;;;;;;27.33;12.30;;;;;;;4.90;78.27;101065.41;8835317;32;20186;-70
2020/12/26 10:24:03;;;;;;;18.77;9.97;;;;;;;4.65;78.44;101068.00;8835494;32;20236;-70
2020/12/26 10:29:05;;;;;;;17.80;9.95;;;;;;;5.00;77.87;101055.41;8834964;32;20232;-70
2020/12/26 10:34:09;;;;;;;25.42;12.80;;;;;;;4.82;77.48;101049.78;8835003;32;20218;-70
2020/12/26 10:39:12;;;;;;;16.40;8.68;;;;;;;4.89;77.42;101046.03;8834390;32;20185;-70
2020/12/26 10:44:15;;;;;;;16.33;8.20;;;;;;;4.85;77.89;101044.41;8810382;32;20402;-70
2020/12/26 10:49:21;;;;;;;17.42;9.40;;;;;;;4.88;77.87;101030.19;8834889;32;20147;-70
2020/12/26 10:54:24;;;;;;;24.50;12.87;;;;;;;5.20;76.13;101007.03;8834442;32;20577;-70
2020/12/26 10:59:27;;;;;;;31.98;15.07;;;;;;;5.23;75.53;101009.59;8834055;32;20394;-70
2020/12/26 11:04:29;;;;;;;16.58;8.60;;;;;;;5.27;74.93;101000.63;8834553;32;20562;-70
2020/12/26 11:09:33;;;;;;;13.35;8.43;;;;;;;5.47;74.24;100989.31;8833629;33;20178;-70
2020/12/26 11:14:36;;;;;;;16.20;9.00;;;;;;;5.62;73.56;100975.47;8833897;33;20139;-70
2020/12/26 11:19:38;;;;;;;15.75;8.88;;;;;;;5.58;74.09;100974.75;8832936;33;20635;-70
2020/12/26 11:24:41;;;;;;;17.08;9.48;;;;;;;5.51;74.01;100959.09;8832999;32;20222;-70
2020/12/26 11:29:44;;;;;;;14.13;6.28;;;;;;;5.91;72.98;100934.63;8833151;32;20251;-70
2020/12/26 11:34:46;;;;;;;8.68;5.50;;;;;;;5.72;72.36;100926.50;8833031;33;20241;-71
2020/12/26 11:39:49;;;;;;;17.25;7.78;;;;;;;5.52;72.83;100952.91;8833002;33;20297;-70
2020/12/26 11:44:52;;;;;;;9.35;6.22;;;;;;;5.54;72.46;100903.38;8834412;32;20174;-71
2020/12/26 11:49:54;;;;;;;8.63;4.88;;;;;;;5.86;71.76;100910.06;8833082;32;20645;-70
2020/12/26 11:54:58;;;;;;;16.02;7.78;;;;;;;5.94;71.67;100899.19;8833192;32;20513;-70
2020/12/26 12:00:00;;;;;;;14.88;8.15;;;;;;;5.86;71.25;100878.22;8807158;33;20151;-70
2020/12/26 12:05:02;;;;;;;13.00;7.03;;;;;;;5.75;72.53;100869.84;8833302;33;20248;-70
2020/12/26 12:10:06;;;;;;;16.33;6.85;;;;;;;5.69;73.11;100870.94;8832491;32;20525;-70
2020/12/26 12:15:08;;;;;;;14.75;9.18;;;;;;;5.61;73.16;100856.25;8833725;32;20150;-70
2020/12/26 12:20:10;;;;;;;13.88;6.97;;;;;;;5.85;71.75;100843.84;8833968;32;20583;-70
2020/12/26 12:25:13;;;;;;;9.70;5.95;;;;;;;5.68;72.04;100831.25;8837477;32;20671;-70
2020/12/26 12:30:16;;;;;;;12.20;6.53;;;;;;;5.85;71.01;100807.56;8837123;32;20868;-70
2020/12/26 12:35:19;;;;;;;9.65;5.32;;;;;;;6.13;69.24;100802.03;8837639;33;20430;-70
2020/12/26 12:40:22;;;;;;;8.38;4.53;;;;;;;5.91;69.77;100825.03;8838443;33;20190;-70
2020/12/26 12:45:25;;;;;;;13.15;5.82;;;;;;;6.17;68.81;100806.28;8837567;32;21150;-70
2020/12/26 12:50:27;;;;;;;10.85;8.63;;;;;;;6.41;67.89;100793.75;8837400;32;20277;-70
2020/12/26 12:55:30;;;;;;;8.13;5.10;;;;;;;5.98;69.31;100779.66;8837121;33;21359;-70
2020/12/26 13:00:33;;;;;;;12.90;8.35;;;;;;;6.12;69.13;100768.47;8836212;32;20185;-70
2020/12/26 13:05:36;;;;;;;8.32;5.15;;;;;;;6.26;68.18;100767.88;8836521;32;20438;-70
2020/12/26 13:10:39;;;;;;;16.27;9.63;;;;;;;5.95;69.16;100763.88;8833935;32;20273;-70
2020/12/26 13:15:42;;;;;;;10.65;7.53;;;;;;;5.75;69.95;100767.28;8835635;32;20142;-70
2020/12/26 13:20:47;;;;;;;5.53;3.50;;;;;;;5.92;69.19;100760.44;8835953;33;20198;-70
2020/12/26 13:25:50;;;;;;;8.35;5.82;;;;;;;6.01;68.95;100736.22;8832276;32;20202;-70
2020/12/26 13:30:52;;;;;;;9.80;5.68;;;;;;;6.14;68.54;100733.91;8834818;32;20189;-69
2020/12/26 13:35:55;;;;;;;8.70;4.28;;;;;;;5.85;68.99;100728.03;8834378;32;20449;-70
2020/12/26 13:40:58;;;;;;;7.43;4.22;;;;;;;5.77;69.05;100720.38;8834703;32;20182;-70
2020/12/26 13:46:00;;;;;;;11.32;5.97;;;;;;;5.62;68.92;100734.25;8828272;32;20594;-70
2020/12/26 13:51:07;;;;;;;9.63;4.97;;;;;;;5.68;68.63;100728.72;8834143;32;20612;-69
2020/12/26 13:56:11;;;;;;;6.47;3.42;;;;;;;5.63;68.57;100728.03;8830637;32;20954;-69
2020/12/26 14:01:29;;;;;;;6.97;2.95;;;;;;;5.79;67.82;100701.75;8833106;32;20182;-69
2020/12/26 14:06:33;;;;;;;5.43;4.25;;;;;;;5.87;67.21;100709.38;8827999;32;20272;-70
2020/12/26 14:11:36;;;;;;;4.43;3.42;;;;;;;5.94;66.57;100703.78;8833996;32;20204;-70
2020/12/26 14:16:38;;;;;;;6.97;4.13;;;;;;;5.95;65.89;100691.38;8833743;32;20156;-70
2020/12/26 14:21:40;;;;;;;2.67;2.42;;;;;;;5.89;65.80;100697.78;8808121;32;20182;-70
2020/12/26 14:26:43;;;;;;;7.70;3.45;;;;;;;6.00;65.95;100689.41;8834031;32;20511;-70
2020/12/26 14:31:49;;;;;;;5.70;3.72;;;;;;;5.80;65.83;100687.56;8808409;33;20167;-70
2020/12/26 14:36:52;;;;;;;4.47;3.58;;;;;;;5.83;66.00;100681.28;8812549;32;20192;-70
2020/12/26 14:42:00;;;;;;;3.70;3.08;;;;;;;5.71;66.15;100682.66;8826688;32;20414;-70
2020/12/26 14:47:03;;;;;;;7.93;3.28;;;;;;;5.69;66.28;100685.38;8832100;32;27773;-70
2020/12/26 14:52:06;;;;;;;4.53;2.85;;;;;;;5.53;66.61;100678.97;8724167;32;20223;-70
2020/12/26 14:57:09;;;;;;;5.32;3.85;;;;;;;5.48;66.50;100670.34;8712876;33;20362;-72
2020/12/26 15:02:11;;;;;;;3.45;3.03;;;;;;;5.48;66.94;100650.00;8689779;33;20148;-70
2020/12/26 15:07:13;;;;;;;4.20;2.47;;;;;;;5.63;66.48;100652.97;8689236;33;20322;-70
2020/12/26 15:12:16;;;;;;;5.10;3.13;;;;;;;5.30;67.73;100632.25;8713373;33;20187;-70
2020/12/26 15:17:19;;;;;;;4.75;3.45;;;;;;;5.40;67.98;100614.16;8734840;33;20484;-70
2020/12/26 15:22:21;;;;;;;2.25;2.03;;;;;;;5.25;67.98;100613.00;8713303;33;20630;-70
2020/12/26 15:27:25;;;;;;;4.05;2.75;;;;;;;5.21;68.98;100587.56;8713744;33;20696;-70
2020/12/26 15:32:27;;;;;;;5.80;3.60;;;;;;;5.25;68.84;100589.16;8712647;33;20214;-69
2020/12/26 15:37:29;;;;;;;3.78;2.55;;;;;;;5.17;68.81;100600.06;8712851;33;20187;-71
2020/12/26 15:42:32;;;;;;;3.08;2.55;;;;;;;5.16;68.98;100569.22;8710379;33;20557;-70
2020/12/26 15:47:35;;;;;;;2.50;2.28;;;;;;;5.40;68.11;100562.00;8735755;33;20282;-70
2020/12/26 15:52:38;;;;;;;3.90;3.47;;;;;;;5.40;68.02;100577.06;8712982;33;20274;-70
2020/12/26 15:57:41;;;;;;;2.63;1.95;;;;;;;5.17;69.14;100565.66;8717163;33;20194;-71
2020/12/26 16:02:43;;;;;;;3.28;2.78;;;;;;;5.19;70.63;100547.06;8719375;33;20674;-70
2020/12/26 16:07:46;;;;;;;3.80;3.05;;;;;;;4.98;72.25;100567.34;8694444;33;20321;-71
2020/12/26 16:12:49;;;;;;;4.22;2.00;;;;;;;5.01;72.28;100536.28;8709947;33;20158;-71
2020/12/26 16:17:51;;;;;;;3.70;2.33;;;;;;;5.02;72.29;100524.78;8717057;33;20190;-70
2020/12/26 16:22:54;;;;;;;2.30;2.10;;;;;;;5.00;72.23;100510.75;8718179;33;21098;-70
2020/12/26 16:27:58;;;;;;;6.25;3.00;;;;;;;5.16;70.97;100497.72;8717570;33;20267;-69
2020/12/26 16:33:00;;;;;;;5.82;3.55;;;;;;;5.29;70.94;100496.28;8716172;33;20227;-70
2020/12/26 16:38:03;;;;;;;5.27;3.43;;;;;;;5.37;70.22;100482.66;8716178;33;20710;-70
2020/12/26 16:43:06;;;;;;;7.30;3.88;;;;;;;5.35;70.45;100466.84;8715031;33;20206;-70
2020/12/26 16:48:08;;;;;;;4.28;3.50;;;;;;;5.60;69.99;100456.97;8717144;33;20260;-70
2020/12/26 16:53:11;;;;;;;1.92;1.73;;;;;;;5.30;70.01;100445.00;8716968;33;20128;-70
2020/12/26 16:58:14;;;;;;;5.80;4.38;;;;;;;5.53;69.43;100433.34;8715406;33;20191;-71
2020/12/26 17:03:16;;;;;;;2.88;2.67;;;;;;;5.41;69.62;100449.81;8715508;33;20333;-70
2020/12/26 17:08:19;;;;;;;5.40;2.80;;;;;;;5.34;69.19;100420.06;8695228;33;20151;-70
2020/12/26 17:13:22;;;;;;;3.28;2.80;;;;;;;5.51;68.89;100415.81;8717118;33;20670;-71
2020/12/26 17:18:25;;;;;;;35.28;16.25;;;;;;;5.51;69.10;100406.09;8716281;33;20595;-71
2020/12/26 17:23:27;;;;;;;6.07;4.25;;;;;;;5.60;68.58;100385.41;8716242;33;20223;-72
2020/12/26 17:28:30;;;;;;;4.85;3.90;;;;;;;5.46;68.89;100399.28;8718472;33;20603;-71
2020/12/26 17:33:32;;;;;;;3.38;2.67;;;;;;;5.41;69.07;100370.34;8716155;33;20197;-71
2020/12/26 17:38:34;;;;;;;6.15;4.55;;;;;;;5.50;68.63;100361.09;8711878;33;20188;-71
2020/12/26 17:43:38;;;;;;;7.18;3.65;;;;;;;5.30;69.15;100373.47;8715841;33;20269;-70
2020/12/26 17:48:43;;;;;;;3.05;2.53;;;;;;;5.44;68.95;100369.34;8715949;33;20304;-71
2020/12/26 17:53:47;;;;;;;4.37;3.00;;;;;;;5.77;67.88;100356.28;8715559;33;20140;-70
2020/12/26 17:58:50;;;;;;;2.60;2.40;;;;;;;5.49;68.58;100370.84;8715424;33;20221;-70
2020/12/26 18:03:53;;;;;;;6.75;3.65;;;;;;;5.51;68.32;100349.53;8717228;33;20192;-70
2020/12/26 18:08:55;;;;;;;3.60;2.63;;;;;;;5.35;68.44;100344.13;8717252;33;20198;-70
2020/12/26 18:13:59;;;;;;;3.20;2.70;;;;;;;5.42;68.09;100329.66;8715235;33;20601;-70
2020/12/26 18:19:01;;;;;;;4.57;3.33;;;;;;;5.21;68.57;100326.22;8714514;33;20187;-70
2020/12/26 18:24:04;;;;;;;3.88;2.33;;;;;;;5.51;68.13;100320.41;8712977;33;20203;-70
2020/12/26 18:29:07;;;;;;;4.10;2.40;;;;;;;5.32;68.64;100305.38;8715425;33;20183;-70
2020/12/26 18:34:09;;;;;;;4.27;3.23;;;;;;;5.62;67.95;100296.91;8716412;33;20298;-70
2020/12/26 18:39:13;;;;;;;2.35;2.10;;;;;;;5.44;68.07;100288.03;8714669;33;20149;-70
2020/12/26 18:44:16;;;;;;;7.53;4.05;;;;;;;5.34;68.75;100286.75;8716398;33;21495;-70
2020/12/26 18:49:19;;;;;;;5.20;2.92;;;;;;;5.52;68.45;100300.94;8716378;33;20510;-70
2020/12/26 18:54:21;;;;;;;4.00;2.20;;;;;;;5.43;68.41;100273.09;8715765;33;20171;-70
2020/12/26 18:59:28;;;;;;;4.28;2.78;;;;;;;5.38;68.63;100271.59;8691254;33;20183;-70
2020/12/26 19:04:30;;;;;;;3.08;2.22;;;;;;;5.35;68.83;100259.34;8715085;33;21607;-70
2020/12/26 19:09:32;;;;;;;11.63;7.93;;;;;;;5.48;68.60;100251.66;8712873;33;20194;-70
2020/12/26 19:14:36;;;;;;;2.95;2.20;;;;;;;5.46;68.85;100230.53;8713650;33;20450;-70
2020/12/26 19:19:39;;;;;;;1.33;1.25;;;;;;;5.27;69.27;100217.31;8713269;33;20230;-70
2020/12/26 19:24:41;;;;;;;4.80;2.83;;;;;;;5.46;68.91;100197.91;8714650;33;20182;-70
2020/12/26 19:29:44;;;;;;;3.58;1.92;;;;;;;5.37;69.51;100185.06;8713810;33;20182;-70
2020/12/26 19:34:47;;;;;;;1.63;1.42;;;;;;;5.40;69.29;100184.91;8715274;33;21052;-70
2020/12/26 19:39:49;;;;;;;1.95;1.83;;;;;;;5.41;69.62;100179.56;8714740;33;20179;-70
2020/12/26 19:44:53;;;;;;;3.83;2.83;;;;;;;5.50;70.00;100155.25;8715525;33;20499;-70
2020/12/26 19:49:55;;;;;;;5.50;3.92;;;;;;;5.09;72.99;100155.47;8714589;33;20357;-70
2020/12/26 19:54:58;;;;;;;4.28;2.60;;;;;;;5.05;73.08;100159.22;8715959;33;20510;-70
2020/12/26 20:00:01;;;;;;;1.80;1.70;;;;;;;4.95;72.90;100135.91;8714940;33;20958;-70
2020/12/26 20:05:14;;;;;;;4.78;3.65;;;;;;;5.33;71.45;100126.09;8715576;33;20212;-70
2020/12/26 20:10:16;;;;;;;3.08;2.00;;;;;;;5.28;72.07;100099.81;8716305;33;20774;-70
2020/12/26 20:15:19;;;;;;;2.22;1.90;;;;;;;5.42;71.63;100093.84;8714515;33;20637;-70
2020/12/26 20:20:22;;;;;;;2.28;2.15;;;;;;;4.82;75.07;100110.00;8714454;33;20562;-70
2020/12/26 20:25:24;;;;;;;3.00;2.40;;;;;;;4.81;76.14;100088.91;8713857;33;20976;-70
2020/12/26 20:30:28;;;;;;;5.78;3.42;;;;;;;4.82;75.20;100067.63;8713660;33;21182;-70
2020/12/26 20:35:30;;;;;;;2.73;2.03;;;;;;;4.87;74.75;100049.75;8713859;33;20198;-70
2020/12/26 20:40:32;;;;;;;2.63;2.17;;;;;;;5.05;73.75;100044.50;8712548;33;20187;-70
2020/12/26 20:45:35;;;;;;;3.60;3.17;;;;;;;5.04;73.36;100053.34;8717657;33;20438;-70
2020/12/26 20:50:38;;;;;;;2.07;1.87;;;;;;;4.97;72.84;100054.63;8718582;33;20148;-71
2020/12/26 20:55:40;;;;;;;5.72;4.28;;;;;;;5.12;72.77;100028.22;8718104;33;20199;-70
2020/12/26 21:00:44;;;;;;;3.47;3.17;;;;;;;4.94;72.93;100013.25;8718175;33;20446;-71
2020/12/26 21:05:46;;;;;;;3.43;1.90;;;;;;;5.11;72.13;100010.63;8718958;33;20190;-70
2020/12/26 21:10:49;;;;;;;4.45;3.60;;;;;;;5.18;71.98;99994.41;8718641;33;20209;-70
2020/12/26 21:15:52;;;;;;;3.45;2.90;;;;;;;5.08;73.03;99994.88;8718176;33;20726;-70
2020/12/26 21:20:54;;;;;;;2.33;1.85;;;;;;;4.85;74.02;99976.63;8717635;33;20168;-70
2020/12/26 21:25:56;;;;;;;2.67;2.05;;;;;;;5.05;73.35;99949.19;8716078;33;20190;-70
2020/12/26 21:31:00;;;;;;;3.45;2.45;;;;;;;5.08;73.39;99928.69;8718890;33;20152;-70
2020/12/26 21:36:02;;;;;;;2.88;2.33;;;;;;;4.97;73.04;99927.53;8717200;33;20287;-70
2020/12/26 21:41:04;;;;;;;2.40;1.93;;;;;;;4.83;74.96;99921.16;8717809;33;20208;-70
2020/12/26 21:46:08;;;;;;;2.57;2.30;;;;;;;4.61;76.12;99896.69;8718195;33;20299;-71
2020/12/26 21:51:12;;;;;;;3.47;2.47;;;;;;;4.55;77.06;99891.69;8717080;33;20274;-71
2020/12/26 21:56:16;;;;;;;5.00;2.67;;;;;;;4.58;76.88;99863.31;8717389;33;20212;-70
2020/12/26 22:01:20;;;;;;;3.30;2.10;;;;;;;4.60;77.03;99860.56;8717519;33;20661;-71
2020/12/26 22:06:23;;;;;;;1.90;1.80;;;;;;;4.63;76.57;99857.78;8717855;33;20443;-70
2020/12/26 22:11:26;;;;;;;2.30;2.10;;;;;;;4.63;76.78;99845.38;8717613;33;20625;-70
2020/12/26 22:16:29;;;;;;;2.63;1.85;;;;;;;4.59;75.88;99811.25;8717421;33;20666;-70
2020/12/26 22:21:32;;;;;;;4.57;2.97;;;;;;;4.88;75.39;99829.13;8717038;33;20504;-71
2020/12/26 22:26:34;;;;;;;1.77;1.67;;;;;;;4.88;74.78;99797.38;8719578;33;20173;-70
2020/12/26 22:31:37;;;;;;;7.40;3.67;;;;;;;5.07;74.00;99794.59;8716869;33;20246;-70
2020/12/26 22:36:40;;;;;;;2.47;2.27;;;;;;;4.75;75.19;99792.78;8716189;33;20222;-70
2020/12/26 22:41:42;;;;;;;3.05;2.22;;;;;;;4.59;77.11;99784.78;8739329;33;20263;-71
2020/12/26 22:46:45;;;;;;;2.80;2.57;;;;;;;4.55;77.19;99757.66;8715754;33;20191;-70
2020/12/26 22:52:02;;;;;;;6.05;4.07;;;;;;;4.48;77.94;99744.81;8715768;33;21592;-71
2020/12/26 22:57:05;;;;;;;4.73;3.20;;;;;;;4.50;77.49;99733.22;8715616;33;20579;-74
2020/12/26 23:02:12;;;;;;;3.73;2.40;;;;;;;4.71;76.99;99702.09;8715457;33;20148;-70
2020/12/26 23:07:15;;;;;;;3.43;2.47;;;;;;;4.64;75.98;99684.88;8715275;33;20190;-71
2020/12/26 23:12:17;;;;;;;3.72;2.40;;;;;;;4.93;74.93;99667.38;8715508;33;20148;-70
2020/12/26 23:17:20;;;;;;;2.72;2.53;;;;;;;4.94;74.74;99661.19;8713418;33;20225;-70
2020/12/26 23:22:22;;;;;;;3.30;1.93;;;;;;;5.03;73.83;99665.94;8715737;33;20187;-70
2020/12/26 23:27:26;;;;;;;3.47;2.00;;;;;;;5.06;73.51;99657.00;8715723;33;20271;-70
2020/12/26 23:32:29;;;;;;;3.23;2.70;;;;;;;5.19;72.74;99644.78;8715333;33;20197;-70
2020/12/26 23:37:31;;;;;;;2.80;2.13;;;;;;;5.03;72.96;99638.63;8715459;33;20336;-70
2020/12/26 23:42:34;;;;;;;2.22;2.00;;;;;;;5.06;72.13;99609.34;8715277;33;20482;-70